createdAt,value
2022-12-03T00:04:04.938Z,51.20
2022-12-03T00:09:04.788Z,53.10
2022-12-03T00:14:04.713Z,52.60
2022-12-03T00:19:04.720Z,55.90
2022-12-03T00:24:04.743Z,54.10
2022-12-03T00:29:04.530Z,57.50
2022-12-03T00:34:04.449Z,55.20
2022-12-03T00:39:04.347Z,54.20
2022-12-03T00:44:04.348Z,56.60
2022-12-03T00:49:04.220Z,54.10
2022-12-03T00:54:04.202Z,57.40
2022-12-03T00:59:04.157Z,59.40
2022-12-03T01:04:04.032Z,54.40
2022-12-03T01:09:04.000Z,55.10
2022-12-03T01:14:03.922Z,53.90
2022-12-03T01:19:03.847Z,52.80
2022-12-03T01:24:03.848Z,54.10
2022-12-03T01:29:03.735Z,53.80
2022-12-03T01:34:03.656Z,56.40
2022-12-03T01:39:03.603Z,56.20
2022-12-03T01:44:03.521Z,53.60
2022-12-03T01:49:03.470Z,57.20
2022-12-03T01:54:03.484Z,53.50
2022-12-03T01:59:03.358Z,52.10
2022-12-03T02:04:03.393Z,50.10
2022-12-03T02:09:03.212Z,48.40
2022-12-03T02:14:03.135Z,53.60
2022-12-03T02:19:03.151Z,51.10
2022-12-03T02:24:03.080Z,51.00
2022-12-03T02:29:03.023Z,50.70
2022-12-03T02:34:02.902Z,50.00
2022-12-03T02:39:02.858Z,54.00
2022-12-03T02:44:02.795Z,55.30
2022-12-03T02:49:02.701Z,55.00
2022-12-03T02:54:02.683Z,50.60
2022-12-03T02:59:02.580Z,50.70
2022-12-03T03:04:02.502Z,45.90
2022-12-03T03:09:03.970Z,52.40
2022-12-03T03:14:02.513Z,50.40
2022-12-03T03:19:02.408Z,48.90
2022-12-03T03:24:02.567Z,51.90
2022-12-03T03:29:02.897Z,56.10
2022-12-03T03:34:03.638Z,49.90
2022-12-03T03:39:02.559Z,49.70
2022-12-03T03:44:02.697Z,50.50
2022-12-03T03:49:03.445Z,49.10
2022-12-03T03:54:06.053Z,51.40
2022-12-03T03:59:03.318Z,45.10
2022-12-03T04:04:02.020Z,45.20
2022-12-03T04:09:02.253Z,47.70
2022-12-03T04:14:03.123Z,45.10
2022-12-03T04:19:03.054Z,48.10
2022-12-03T04:24:01.746Z,43.30
2022-12-03T04:29:02.920Z,47.20
2022-12-03T04:34:01.419Z,48.60
2022-12-03T04:39:01.348Z,48.30
2022-12-03T04:44:01.400Z,47.00
2022-12-03T04:49:01.226Z,43.40
2022-12-03T04:54:02.597Z,44.90
2022-12-03T04:59:01.386Z,45.90
2022-12-03T05:04:01.035Z,46.10
2022-12-03T05:09:01.456Z,46.90
2022-12-03T05:14:02.353Z,44.40
2022-12-03T05:19:02.274Z,49.70
2022-12-03T05:24:00.908Z,46.80
2022-12-03T05:29:01.293Z,48.10
2022-12-03T05:34:01.224Z,44.00
2022-12-03T05:39:00.851Z,45.70
2022-12-03T05:44:00.722Z,45.30
2022-12-03T05:49:00.983Z,46.80
2022-12-03T05:54:00.656Z,45.90
2022-12-03T05:59:01.779Z,44.40
2022-12-03T06:04:04.457Z,45.00
2022-12-03T06:09:00.350Z,48.50
2022-12-03T06:14:00.198Z,48.60
2022-12-03T06:19:03.906Z,49.60
2022-12-03T06:24:01.448Z,49.50
2022-12-03T06:29:01.385Z,47.10
2022-12-03T06:34:00.184Z,46.60
2022-12-03T06:39:00.255Z,46.30
2022-12-03T06:43:59.774Z,48.80
2022-12-03T06:49:03.590Z,48.10
2022-12-03T06:54:00.083Z,47.60
2022-12-03T06:59:01.019Z,43.80
2022-12-03T07:04:00.962Z,41.80
2022-12-03T07:09:00.992Z,44.40
2022-12-03T07:14:04.702Z,44.00
2022-12-03T07:19:00.330Z,46.40
2022-12-03T07:23:59.465Z,44.40
2022-12-03T07:29:03.073Z,43.20
2022-12-03T07:34:00.608Z,44.40
2022-12-03T07:38:59.248Z,42.30
2022-12-03T07:44:00.529Z,46.10
2022-12-03T07:49:01.845Z,43.20
2022-12-03T07:53:59.769Z,46.40
2022-12-03T07:58:59.989Z,43.00
2022-12-03T08:04:00.354Z,42.10
2022-12-03T08:08:58.736Z,45.30
2022-12-03T08:14:01.242Z,46.20
2022-12-03T08:18:58.834Z,46.70
2022-12-03T08:23:59.993Z,45.60
2022-12-03T08:28:58.475Z,45.00
2022-12-03T08:33:59.142Z,46.80
2022-12-03T08:39:02.504Z,45.10
2022-12-03T08:43:58.281Z,47.00
2022-12-03T08:48:58.865Z,44.10
2022-12-03T08:54:01.921Z,45.70
2022-12-03T08:58:59.649Z,45.90
2022-12-03T09:03:59.693Z,49.50
2022-12-03T09:09:03.797Z,46.80
2022-12-03T09:14:00.389Z,49.10
2022-12-03T09:18:59.356Z,51.10
2022-12-03T09:23:59.772Z,51.00
2022-12-03T09:28:59.172Z,54.20
2022-12-03T09:33:59.514Z,53.80
2022-12-03T09:38:59.398Z,51.70
2022-12-03T09:44:05.936Z,51.80
2022-12-03T09:48:59.827Z,54.80
2022-12-03T09:54:04.567Z,53.20
2022-12-03T09:58:58.268Z,54.70
2022-12-03T10:03:58.845Z,54.50
2022-12-03T10:08:57.265Z,55.20
2022-12-03T10:13:59.257Z,53.00
2022-12-03T10:18:58.516Z,53.40
2022-12-03T10:23:57.897Z,54.50
2022-12-03T10:28:58.322Z,56.10
2022-12-03T10:33:57.857Z,59.00
2022-12-03T10:38:58.397Z,58.10
2022-12-03T10:43:58.544Z,54.80
2022-12-03T10:48:59.930Z,54.00
2022-12-03T10:53:58.240Z,55.30
2022-12-03T10:58:57.984Z,54.90
2022-12-03T11:03:58.063Z,58.00
2022-12-03T11:08:59.398Z,57.10
2022-12-03T11:13:57.501Z,56.50
2022-12-03T11:18:57.635Z,53.70
2022-12-03T11:23:56.152Z,54.10
2022-12-03T11:28:56.172Z,55.50
2022-12-03T11:33:56.133Z,59.50
2022-12-03T11:38:56.038Z,60.70
2022-12-03T11:43:56.520Z,60.30
2022-12-03T11:48:59.646Z,59.30
2022-12-03T11:53:55.762Z,62.40
2022-12-03T11:58:56.284Z,59.70
2022-12-03T12:03:55.939Z,57.90
2022-12-03T12:08:59.489Z,59.70
2022-12-03T12:13:59.781Z,60.30
2022-12-03T12:18:59.550Z,59.70
2022-12-03T12:23:56.808Z,61.30
2022-12-03T12:28:56.917Z,63.40
2022-12-03T12:33:56.747Z,67.30
2022-12-03T12:38:56.701Z,60.70
2022-12-03T12:43:56.687Z,59.00
2022-12-03T12:48:59.662Z,58.60
2022-12-03T12:53:56.604Z,59.90
2022-12-03T12:58:55.284Z,52.10
2022-12-03T13:03:55.727Z,54.30
2022-12-03T13:08:55.085Z,59.30
2022-12-03T13:13:55.116Z,52.20
2022-12-03T13:18:56.118Z,54.80
2022-12-03T13:23:54.728Z,51.70
2022-12-03T13:28:54.663Z,52.50
2022-12-03T13:33:58.795Z,54.80
2022-12-03T13:38:54.636Z,52.20
2022-12-03T13:43:54.917Z,53.20
2022-12-03T13:48:57.426Z,50.80
2022-12-03T13:53:55.467Z,51.90
2022-12-03T13:58:54.370Z,50.70
2022-12-03T14:03:58.442Z,49.90
2022-12-03T14:08:54.027Z,42.60
2022-12-03T14:13:57.986Z,40.60
2022-12-03T14:18:54.294Z,34.40
2022-12-03T14:23:54.176Z,37.30
2022-12-03T14:29:00.392Z,36.80
2022-12-03T14:33:54.223Z,35.50
2022-12-03T14:38:54.143Z,37.40
2022-12-03T14:43:53.772Z,47.20
2022-12-03T14:48:54.217Z,46.90
2022-12-03T14:53:57.230Z,51.50
2022-12-03T14:58:53.383Z,52.30
2022-12-03T15:03:53.331Z,56.50
2022-12-03T15:09:14.037Z,58.10
2022-12-03T15:13:57.091Z,57.80
2022-12-03T15:18:53.277Z,62.20
2022-12-03T15:23:54.497Z,62.50
2022-12-03T15:28:54.427Z,61.50
2022-12-03T15:33:54.449Z,64.70
2022-12-03T15:38:54.361Z,61.10
2022-12-03T15:43:54.447Z,60.30
2022-12-03T15:48:54.271Z,66.40
2022-12-03T15:53:54.118Z,66.60
2022-12-03T15:58:54.045Z,68.10
2022-12-03T16:03:54.077Z,69.70
2022-12-03T16:08:56.415Z,66.10
2022-12-03T16:13:52.965Z,68.40
2022-12-03T16:18:52.910Z,68.40
2022-12-03T16:23:52.335Z,65.30
2022-12-03T16:28:52.676Z,61.80
2022-12-03T16:33:52.556Z,68.10
2022-12-03T16:38:53.534Z,66.00
2022-12-03T16:43:56.133Z,65.80
2022-12-03T16:48:55.909Z,61.40
2022-12-03T16:53:53.339Z,66.00
2022-12-03T16:58:53.254Z,59.80
2022-12-03T17:03:51.885Z,64.90
2022-12-03T17:08:51.735Z,63.50
2022-12-03T17:13:52.053Z,62.20
2022-12-03T17:18:51.993Z,63.30
2022-12-03T17:23:52.933Z,64.90
2022-12-03T17:28:51.519Z,66.00
2022-12-03T17:33:51.597Z,67.20
2022-12-03T17:38:51.331Z,65.70
2022-12-03T17:43:52.690Z,63.30
2022-12-03T17:48:51.593Z,63.20
2022-12-03T17:53:52.551Z,68.30
2022-12-03T17:58:51.053Z,67.60
2022-12-03T18:03:52.518Z,65.30
2022-12-03T18:08:52.368Z,65.80
2022-12-03T18:13:51.048Z,63.80
2022-12-03T18:18:56.373Z,65.40
2022-12-03T18:23:51.742Z,64.90
2022-12-03T18:28:50.848Z,99.60
2022-12-03T18:33:50.588Z,59.60
2022-12-03T18:38:51.985Z,61.70
2022-12-03T18:43:50.579Z,75.50
2022-12-03T18:48:50.427Z,67.40
2022-12-03T18:53:50.545Z,58.20
2022-12-03T18:58:50.656Z,55.60
2022-12-03T19:03:54.206Z,55.20
2022-12-03T19:08:50.319Z,57.10
2022-12-03T19:13:54.275Z,56.50
2022-12-03T19:18:50.539Z,53.90
2022-12-03T19:24:22.658Z,54.10
2022-12-03T19:28:51.112Z,55.20
2022-12-03T19:33:50.235Z,52.60
2022-12-03T19:38:55.189Z,54.60
2022-12-03T19:43:51.024Z,48.50
2022-12-03T19:48:53.726Z,51.30
2022-12-03T19:53:50.123Z,46.80
2022-12-03T19:58:50.923Z,53.80
2022-12-03T20:03:49.595Z,50.20
2022-12-03T20:08:49.417Z,53.10
2022-12-03T20:13:51.280Z,50.00
2022-12-03T20:18:49.287Z,58.90
2022-12-03T20:23:50.171Z,59.20
2022-12-03T20:28:50.652Z,60.50
2022-12-03T20:33:50.675Z,65.50
2022-12-03T20:38:49.882Z,69.30
2022-12-03T20:43:49.253Z,67.80
2022-12-03T20:48:48.882Z,71.00
2022-12-03T20:53:49.047Z,69.30
2022-12-03T20:58:48.984Z,75.10
2022-12-03T21:03:49.204Z,78.30
2022-12-03T21:08:49.415Z,75.70
2022-12-03T21:13:49.543Z,88.40
2022-12-03T21:18:48.785Z,73.30
2022-12-03T21:23:48.616Z,77.10
2022-12-03T21:28:49.790Z,79.60
2022-12-03T21:33:48.409Z,75.00
2022-12-03T21:38:49.341Z,75.10
2022-12-03T21:43:48.652Z,81.50
2022-12-03T21:48:51.969Z,76.90
2022-12-03T21:53:49.463Z,77.80
2022-12-03T21:58:48.226Z,83.00
2022-12-03T22:03:49.349Z,81.70
2022-12-03T22:08:49.268Z,85.00
2022-12-03T22:13:48.150Z,82.20
2022-12-03T22:18:51.620Z,81.20
2022-12-03T22:23:51.647Z,80.30
2022-12-03T22:28:47.849Z,84.70
2022-12-03T22:33:51.482Z,81.80
2022-12-03T22:38:48.458Z,80.60
2022-12-03T22:43:47.532Z,83.60
2022-12-03T22:48:51.300Z,82.10
2022-12-03T22:53:47.326Z,80.40
2022-12-03T22:58:47.236Z,76.90
2022-12-03T23:03:47.465Z,78.60
2022-12-03T23:08:48.487Z,77.10
2022-12-03T23:13:48.396Z,73.00
2022-12-03T23:18:46.901Z,75.90
2022-12-03T23:23:46.837Z,79.20
2022-12-03T23:28:46.959Z,77.20
2022-12-03T23:33:48.312Z,77.00
2022-12-03T23:38:48.097Z,81.00
2022-12-03T23:43:47.095Z,73.80
2022-12-03T23:48:46.584Z,78.20
2022-12-03T23:53:47.904Z,80.80
2022-12-03T23:58:46.352Z,74.10
